createdAt,value
2019-01-15T00:01:14.127Z,1.69
2019-01-15T00:06:15.682Z,1.71
2019-01-15T00:11:17.223Z,1.77
2019-01-15T00:16:19.178Z,1.89
2019-01-15T00:21:20.732Z,1.97
2019-01-15T00:26:22.268Z,2.06
2019-01-15T00:31:23.807Z,2.13
2019-01-15T00:36:25.351Z,2.21
2019-01-15T00:41:27.248Z,2.23
2019-01-15T00:46:29.121Z,2.19
2019-01-15T00:51:30.925Z,2.15
2019-01-15T00:56:32.425Z,2.11
2019-01-15T01:01:33.971Z,2.03
2019-01-15T01:06:35.489Z,2.02
2019-01-15T01:11:37.340Z,2.01
2019-01-15T01:16:38.861Z,2.00
2019-01-15T01:21:40.431Z,1.96
2019-01-15T01:26:41.949Z,1.92
2019-01-15T01:31:43.517Z,1.88
2019-01-15T01:36:45.063Z,1.84
2019-01-15T01:41:46.624Z,1.82
2019-01-15T01:46:48.127Z,1.80
2019-01-15T01:51:50.073Z,1.79
2019-01-15T01:56:51.608Z,1.78
2019-01-15T02:01:53.135Z,1.79
2019-01-15T02:06:54.717Z,1.78
2019-01-15T02:11:56.266Z,1.75
2019-01-15T02:16:57.782Z,1.75
2019-01-15T02:21:59.370Z,1.76
2019-01-15T02:27:00.887Z,1.75
2019-01-15T02:32:02.473Z,1.86
2019-01-15T02:37:04.001Z,1.87
2019-01-15T02:42:05.562Z,1.88
2019-01-15T02:47:07.099Z,1.91
2019-01-15T02:52:08.608Z,1.97
2019-01-15T02:57:10.936Z,1.99
2019-01-15T03:02:12.475Z,2.05
2019-01-15T03:07:13.996Z,2.16
2019-01-15T03:12:15.541Z,2.29
2019-01-15T03:17:17.103Z,2.42
2019-01-15T03:22:19.002Z,2.48
2019-01-15T03:27:20.593Z,2.48
2019-01-15T03:32:22.145Z,2.50
2019-01-15T03:37:23.717Z,2.49
2019-01-15T03:42:25.249Z,2.61
2019-01-15T03:47:26.810Z,2.65
2019-01-15T03:52:28.330Z,2.73
2019-01-15T03:57:29.852Z,2.87
2019-01-15T04:02:31.395Z,2.96
2019-01-15T04:07:32.930Z,3.03
2019-01-15T04:12:34.471Z,3.09
2019-01-15T04:17:36.002Z,3.15
2019-01-15T04:22:37.809Z,3.16
2019-01-15T04:27:39.392Z,3.25
2019-01-15T04:32:41.023Z,3.33
2019-01-15T04:37:42.594Z,3.36
2019-01-15T04:42:44.117Z,3.40
2019-01-15T04:47:46.100Z,3.40
2019-01-15T04:52:47.616Z,3.42
2019-01-15T04:57:49.213Z,3.48
2019-01-15T05:02:51.093Z,3.57
2019-01-15T05:07:53.139Z,3.62
2019-01-15T05:12:54.702Z,3.66
2019-01-15T05:17:56.245Z,3.71
2019-01-15T05:22:58.128Z,3.70
2019-01-15T05:28:00.043Z,3.71
2019-01-15T05:33:01.586Z,3.74
2019-01-15T05:38:03.138Z,3.75
2019-01-15T05:43:04.677Z,3.80
2019-01-15T05:48:06.259Z,3.85
2019-01-15T05:53:07.801Z,3.84
2019-01-15T05:58:09.344Z,3.82
2019-01-15T06:03:10.918Z,3.81
2019-01-15T06:08:13.529Z,3.73
2019-01-15T06:13:15.086Z,3.66
2019-01-15T06:18:16.626Z,3.58
2019-01-15T06:23:18.469Z,3.58
2019-01-15T06:28:20.005Z,3.55
2019-01-15T06:33:21.612Z,3.61
2019-01-15T06:38:23.307Z,3.61
2019-01-15T06:43:24.809Z,3.69
2019-01-15T06:48:26.416Z,3.69
2019-01-15T06:53:27.980Z,3.64
2019-01-15T06:58:29.531Z,3.68
2019-01-15T07:03:31.436Z,3.80
2019-01-15T07:08:32.975Z,3.84
2019-01-15T07:13:34.511Z,3.83
2019-01-15T07:18:36.041Z,3.82
2019-01-15T07:23:37.591Z,3.79
2019-01-15T07:28:39.839Z,3.77
2019-01-15T07:33:41.339Z,3.81
2019-01-15T07:38:43.187Z,3.91
2019-01-15T07:43:44.778Z,4.03
2019-01-15T07:48:46.329Z,4.18
2019-01-15T07:53:48.245Z,4.28
2019-01-15T07:58:49.783Z,4.40
2019-01-15T08:03:51.349Z,4.55
2019-01-15T08:08:52.846Z,4.59
2019-01-15T08:13:54.726Z,4.67
2019-01-15T08:18:56.585Z,4.75
2019-01-15T08:23:58.148Z,4.80
2019-01-15T08:28:59.673Z,4.86
2019-01-15T08:34:01.199Z,4.89
2019-01-15T08:39:05.709Z,4.91
2019-01-15T08:44:07.270Z,4.96
2019-01-15T08:49:08.801Z,5.02
2019-01-15T08:54:10.384Z,5.05
2019-01-15T08:59:11.969Z,5.12
2019-01-15T09:04:13.576Z,5.16
2019-01-15T09:09:15.111Z,5.27
2019-01-15T09:14:17.003Z,5.33
2019-01-15T09:19:18.489Z,5.42
2019-01-15T09:24:20.406Z,5.53
2019-01-15T09:29:21.933Z,5.59
2019-01-15T09:34:23.487Z,5.63
2019-01-15T09:39:25.295Z,5.68
2019-01-15T09:44:33.872Z,5.83
2019-01-15T09:49:30.245Z,5.90
2019-01-15T09:54:31.805Z,6.04
2019-01-15T09:59:33.349Z,6.08
2019-01-15T10:04:34.889Z,6.16
2019-01-15T10:09:36.387Z,6.23
2019-01-15T10:14:41.409Z,6.29
2019-01-15T10:19:41.366Z,6.35
2019-01-15T10:24:42.871Z,6.43
2019-01-15T10:29:44.392Z,6.49
2019-01-15T10:34:45.938Z,6.61
2019-01-15T10:39:47.485Z,6.76
2019-01-15T10:44:49.035Z,7.02
2019-01-15T10:49:50.588Z,7.10
2019-01-15T10:54:52.100Z,7.16
2019-01-15T10:59:53.664Z,7.17
2019-01-15T11:04:55.228Z,7.17
2019-01-15T11:09:56.799Z,7.25
2019-01-15T11:14:58.493Z,7.30
2019-01-15T11:20:00.079Z,7.41
2019-01-15T11:25:01.718Z,7.31
2019-01-15T11:30:04.759Z,7.30
2019-01-15T11:35:07.096Z,7.25
2019-01-15T11:40:08.701Z,7.17
2019-01-15T11:45:11.303Z,7.14
2019-01-15T11:50:14.578Z,7.09
2019-01-15T11:55:16.201Z,7.11
2019-01-15T12:00:28.070Z,7.08
2019-01-15T12:05:29.580Z,7.00
2019-01-15T12:10:31.128Z,6.96
2019-01-15T12:15:32.670Z,6.95
2019-01-15T12:20:34.194Z,6.90
2019-01-15T12:25:35.723Z,6.86
2019-01-15T12:30:37.248Z,6.89
2019-01-15T12:35:38.866Z,6.87
2019-01-15T12:40:40.376Z,6.87
2019-01-15T12:45:41.928Z,6.92
2019-01-15T12:50:43.886Z,6.97
2019-01-15T12:55:45.448Z,7.07
2019-01-15T13:00:47.030Z,7.11
2019-01-15T13:05:48.544Z,7.09
2019-01-15T13:10:50.100Z,7.11
2019-01-15T13:15:51.753Z,7.06
2019-01-15T13:20:53.266Z,7.03
2019-01-15T13:26:09.737Z,7.11
2019-01-15T13:31:11.424Z,7.14
2019-01-15T13:36:12.915Z,7.24
2019-01-15T13:41:15.160Z,7.30
2019-01-15T13:46:16.722Z,7.30
2019-01-15T13:51:18.220Z,7.34
2019-01-15T13:56:19.782Z,7.41
2019-01-15T14:01:21.672Z,7.53
2019-01-15T14:06:23.197Z,7.60
2019-01-15T14:11:24.731Z,7.64
2019-01-15T14:16:26.288Z,7.67
2019-01-15T14:21:28.111Z,7.71
2019-01-15T14:26:29.614Z,7.67
2019-01-15T14:31:31.152Z,7.65
2019-01-15T14:36:32.648Z,7.69
2019-01-15T14:41:34.182Z,7.69
2019-01-15T14:46:35.690Z,7.69
2019-01-15T14:51:37.285Z,7.64
2019-01-15T14:56:38.924Z,7.63
2019-01-15T15:01:40.879Z,7.61
2019-01-15T15:06:42.402Z,7.58
2019-01-15T15:11:45.068Z,7.61
2019-01-15T15:16:46.651Z,7.66
2019-01-15T15:21:48.200Z,7.69
2019-01-15T15:26:49.721Z,7.68
2019-01-15T15:31:51.377Z,7.61
2019-01-15T15:36:52.907Z,7.52
2019-01-15T15:41:54.515Z,7.45
2019-01-15T15:46:56.379Z,7.39
2019-01-15T15:51:57.955Z,7.33
2019-01-15T15:56:59.482Z,7.28
2019-01-15T16:02:01.027Z,7.24
2019-01-15T16:07:02.587Z,7.20
2019-01-15T16:12:04.108Z,7.16
2019-01-15T16:17:05.794Z,7.15
2019-01-15T16:22:07.427Z,7.13
2019-01-15T16:27:09.374Z,7.11
2019-01-15T16:32:10.931Z,7.07
2019-01-15T16:37:12.471Z,7.06
2019-01-15T16:42:14.416Z,7.05
2019-01-15T16:47:16.405Z,7.05
2019-01-15T16:52:17.958Z,7.03
2019-01-15T16:57:19.552Z,7.05
2019-01-15T17:02:21.196Z,7.03
2019-01-15T17:07:23.011Z,7.05
2019-01-15T17:12:25.065Z,7.00
2019-01-15T17:17:26.957Z,7.02
2019-01-15T17:22:29.028Z,7.02
2019-01-15T17:27:31.380Z,7.03
2019-01-15T17:32:32.922Z,7.02
2019-01-15T17:37:35.501Z,6.99
2019-01-15T17:42:37.109Z,6.97
2019-01-15T17:47:38.731Z,6.95
2019-01-15T17:52:43.666Z,6.94
2019-01-15T17:57:43.710Z,6.95
2019-01-15T18:02:45.281Z,6.92
2019-01-15T18:07:47.179Z,6.98
2019-01-15T18:12:48.800Z,7.00
2019-01-15T18:17:50.834Z,6.98
2019-01-15T18:22:52.417Z,7.01
2019-01-15T18:27:53.995Z,6.99
2019-01-15T18:32:55.561Z,6.97
2019-01-15T18:37:57.443Z,6.97
2019-01-15T18:42:59.737Z,6.98
2019-01-15T18:48:01.271Z,6.96
2019-01-15T18:53:02.916Z,6.97
2019-01-15T18:58:05.134Z,6.98
2019-01-15T19:03:07.828Z,6.97
2019-01-15T19:08:09.471Z,6.95
2019-01-15T19:13:11.327Z,6.97
2019-01-15T19:18:13.283Z,6.97
2019-01-15T19:23:14.891Z,6.97
2019-01-15T19:28:16.581Z,6.97
2019-01-15T19:33:18.451Z,6.96
2019-01-15T19:38:20.246Z,6.96
2019-01-15T19:43:21.969Z,6.94
2019-01-15T19:48:23.861Z,6.94
2019-01-15T19:53:25.557Z,6.93
2019-01-15T19:58:27.173Z,6.92
2019-01-15T20:03:29.813Z,6.92
2019-01-15T20:08:31.771Z,6.90
2019-01-15T20:13:33.332Z,6.91
2019-01-15T20:18:34.953Z,6.90
2019-01-15T20:23:36.489Z,6.90
2019-01-15T20:28:38.265Z,6.88
2019-01-15T20:33:39.829Z,6.89
2019-01-15T20:38:43.234Z,6.89
2019-01-15T20:43:44.916Z,6.87
2019-01-15T20:48:46.940Z,6.88
2019-01-15T20:53:48.549Z,6.88
2019-01-15T20:58:50.126Z,6.89
2019-01-15T21:03:51.696Z,6.89
2019-01-15T21:08:53.333Z,6.89
2019-01-15T21:13:54.930Z,6.88
2019-01-15T21:18:57.120Z,6.91
2019-01-15T21:23:59.053Z,6.90
2019-01-15T21:29:00.606Z,6.89
2019-01-15T21:34:02.230Z,6.88
2019-01-15T21:39:04.725Z,6.88
2019-01-15T21:44:06.284Z,6.89
2019-01-15T21:49:07.887Z,6.89
2019-01-15T21:54:09.464Z,6.88
2019-01-15T21:59:11.020Z,6.91
2019-01-15T22:04:12.552Z,6.92
2019-01-15T22:09:14.081Z,6.89
2019-01-15T22:14:15.632Z,6.90
2019-01-15T22:19:17.182Z,6.90
2019-01-15T22:24:18.744Z,6.90
2019-01-15T22:29:20.342Z,6.90
2019-01-15T22:34:22.236Z,6.90
2019-01-15T22:39:23.918Z,6.89
2019-01-15T22:44:25.736Z,6.89
2019-01-15T22:49:27.612Z,6.91
2019-01-15T22:54:29.648Z,6.93
2019-01-15T22:59:31.163Z,6.93
2019-01-15T23:04:32.911Z,6.94
2019-01-15T23:09:34.432Z,6.94
2019-01-15T23:14:36.004Z,6.95
2019-01-15T23:19:37.559Z,6.94
2019-01-15T23:24:39.570Z,6.97
2019-01-15T23:29:41.489Z,6.98
2019-01-15T23:34:43.134Z,6.99
2019-01-15T23:39:47.508Z,7.00
2019-01-15T23:44:49.144Z,7.00
2019-01-15T23:49:50.644Z,7.00
2019-01-15T23:54:52.200Z,7.01
2019-01-15T23:59:53.741Z,7.02
